LIRFLIRA

Guest
Details From LIRF - Roma Fiumicino Leonardo Da Vinci
To LIRA - CIAMPINO
Flight Number -
Tags generated
Created
Modified
Stats Distance 16 nm / 29 km
Max Altitude 0 ft / 0 m
Waypoints 3
Social Downloads 1
Likes 0
Share VATSIM

Download

Looking for another format? Having issues loading an existing format? Contact us
Advertisement - Login to hide

Notes

Basic altitude profile: - Ascent Rate: 2500ft/min - Ascent Speed: 250kts - Cruise Altitude: 35000ft - Cruise Speed: 420kts - Descent Rate: 1500ft/min - Descent Speed: 250kts

Route

LIRF ROM LIRA

ID Type Via Altitude Latitude Longitude Leg Dist Tot Dist Heading (true) Name
O LIRF APT - 0 ft / 0 m 41.81081˚ 12.25090˚ - 0 nm - Roma Fiumicino Leonardo Da Vinci
ROM VOR - 0 ft / 0 m 41.80472˚ 12.58806˚ 15 nm 15 nm 91° / 91° ROMA VOR-DME
O LIRA APT - 0 ft / 0 m 41.79923˚ 12.59492˚ 0 nm 15 nm 137° / 137° CIAMPINO

Altitude Profile

Advertisement - Login to hide

LIRF

Details ICAO LIRF (FCO)
Name Roma Fiumicino Leonardo Da Vinci
Region Italy
Timezone Europe/Rome (UTC+1.0)
Stats Elevation 15 ft / 5 m (AMSL)
Location 41.810809° 12.250897°
Runways 3
Magnetic Variation 2.996° E

METAR

LIRF 181250Z 34005KT CAVOK 10/M05 Q1021 NOSIG

Decode

TAF

TAF LIRF 181100Z 1812/1918 02008KT 9999 FEW030

Decode

Departure Runways

ID Width Length Bearing (true) Bearing (mag) Surface Threshold Offset Overrun Length
07 148 ft / 45 m 10,835 ft / 3,302 m 69.67° 66.67° Asphalt 1,365 ft / 416 m 0 ft / 0 m
16L 197 ft / 60 m 12,832 ft / 3,911 m 162.67° 159.67° Asphalt 0 ft / 0 m 0 ft / 0 m
16R 197 ft / 60 m 12,822 ft / 3,908 m 162.66° 159.66° Asphalt 0 ft / 0 m 0 ft / 0 m
25 148 ft / 45 m 10,835 ft / 3,302 m 249.70° 246.70° Asphalt 0 ft / 0 m 0 ft / 0 m
34L 197 ft / 60 m 12,822 ft / 3,908 m 342.67° 339.67° Asphalt 1,053 ft / 321 m 0 ft / 0 m
34R 197 ft / 60 m 12,832 ft / 3,911 m 342.68° 339.68° Asphalt 0 ft / 0 m 0 ft / 0 m

LIRA

Details ICAO LIRA (CIA)
Name CIAMPINO
Region Italy
Timezone Europe/Rome (UTC+1.0)
Stats Elevation 427 ft / 130 m (AMSL)
Location 41.799228° 12.594917°
Runways 1
Magnetic Variation 3.059° E

METAR

LIRA 181250Z 02004KT 290V070 CAVOK 09/M05 Q1021

Decode

TAF

TAF LIRA 181100Z 1812/1912 02006KT 9999 FEW030

Decode

Destination Runways

ID Width Length Bearing (true) Bearing (mag) Surface Threshold Offset Overrun Length
15 154 ft / 47 m 7,246 ft / 2,209 m 152.79° 149.73° Asphalt 0 ft / 0 m 0 ft / 0 m
33 154 ft / 47 m 7,246 ft / 2,209 m 332.80° 329.74° Asphalt 0 ft / 0 m 0 ft / 0 m

Approach Navaids

Runway Type Ident Frequency Range Bearing (true) Bearing (mag) Slope Elevation
15 Localiser CIA 109.90 MHz 18 nm / 33 km 152.81° 149.75° - 426 ft / 130 m (AMSL)
15 Glidescope CIA 109.90 MHz 10 nm / 19 km 152.79° 149.74° 3.00° 384 ft / 117 m (AMSL)

Popular Alternatives